Time;durP1;ratioP1;P1;durP2;ratioP2;P2;SDS_P1;SDS_P2;PMS_P1;PMS_P2;Temp;Humidity;BMP_temperature;BMP_pressure;BME280_temperature;BME280_humidity;BME280_pressure;Samples;Min_cycle;Max_cycle;Signal;HPM_P1;HPM_P2
2023/03/28 00:00:55;;;;;;;0.80;0.80;;;-0.70;94.50;;;;;;5055348;28;20237;-81
2023/03/28 00:03:21;;;;;;;0.97;0.97;;;-1.00;94.90;;;;;;5056300;28;20177;-82
2023/03/28 00:05:47;;;;;;;1.33;1.30;;;;;;;;;;5054887;28;20207;-81
2023/03/28 00:08:14;;;;;;;0.90;0.90;;;;;;;;;;5056494;28;20190;-81
2023/03/28 00:10:40;;;;;;;1.20;1.10;;;;;;;;;;5056340;28;20180;-81
2023/03/28 00:13:05;;;;;;;0.90;0.90;;;-0.80;95.50;;;;;;5055007;28;20357;-81
2023/03/28 00:15:31;;;;;;;0.87;0.87;;;;;;;;;;5038421;28;20293;-83
2023/03/28 00:17:59;;;;;;;2.33;2.13;;;-0.80;87.30;;;;;;5055829;28;20278;-81
2023/03/28 00:20:28;;;;;;;0.93;0.93;;;-0.70;96.50;;;;;;5053621;28;20584;-81
2023/03/28 00:22:54;;;;;;;0.90;0.90;;;;;;;;;;5038582;28;20176;-81
2023/03/28 00:25:20;;;;;;;1.20;1.20;;;;;;;;;;5054630;28;20210;-81
2023/03/28 00:27:46;;;;;;;1.67;1.10;;;;;;;;;;5055955;28;20586;-81
2023/03/28 00:30:12;;;;;;;1.10;1.10;;;;;;;;;;5054558;28;20228;-81
2023/03/28 00:32:38;;;;;;;1.00;1.00;;;;;;;;;;5056122;28;20711;-81
2023/03/28 00:35:06;;;;;;;2.03;1.53;;;-0.80;97.00;;;;;;5055615;28;20186;-81
2023/03/28 00:37:32;;;;;;;1.03;1.03;;;-1.00;96.50;;;;;;5054678;28;20185;-81
2023/03/28 00:39:58;;;;;;;1.20;1.10;;;-0.80;96.10;;;;;;5055434;28;20182;-81
2023/03/28 00:42:24;;;;;;;0.70;0.70;;;-0.70;96.20;;;;;;5037964;28;20206;-81
2023/03/28 00:44:55;;;;;;;0.70;0.70;;;-0.90;86.50;;;;;;5055267;28;20227;-82
2023/03/28 00:47:27;;;;;;;1.47;1.43;;;-1.10;94.80;;;;;;5055505;28;20183;-80
2023/03/28 00:50:13;;;;;;;1.47;1.37;;;-0.80;94.80;;;;;;5054591;28;20225;-81
2023/03/28 00:53:00;;;;;;;0.80;0.80;;;-1.00;85.50;;;;;;5056113;28;20176;-80
2023/03/28 00:55:39;;;;;;;1.63;1.53;;;-1.00;85.20;;;;;;5054811;28;20183;-80
2023/03/28 00:58:09;;;;;;;1.13;1.13;;;-1.00;95.50;;;;;;5055732;28;20175;-81
2023/03/28 01:00:36;;;;;;;1.40;1.33;;;-0.90;94.70;;;;;;5055498;28;20165;-82
2023/03/28 01:03:05;;;;;;;1.20;1.20;;;-1.00;85.90;;;;;;5062568;28;20267;-80
2023/03/28 01:05:33;;;;;;;2.00;1.13;;;-1.00;85.00;;;;;;5062522;28;20200;-80
2023/03/28 01:08:20;;;;;;;1.03;1.03;;;-1.00;85.70;;;;;;5065695;28;20185;-80
2023/03/28 01:10:47;;;;;;;1.00;1.00;;;-1.10;94.20;;;;;;5064243;28;20242;-80
2023/03/28 01:13:16;;;;;;;1.33;1.30;;;-1.00;85.00;;;;;;5064060;28;20183;-80
2023/03/28 01:15:43;;;;;;;4.17;1.10;;;-1.20;94.20;;;;;;5062981;28;20181;-81
2023/03/28 01:18:10;;;;;;;0.90;0.90;;;-1.10;94.60;;;;;;5057404;28;20235;-81
2023/03/28 01:20:51;;;;;;;0.90;0.90;;;-0.80;85.80;;;;;;5055543;28;20180;-81
2023/03/28 01:23:41;;;;;;;1.17;1.17;;;-1.20;95.00;;;;;;5055351;28;20185;-82
2023/03/28 01:26:16;;;;;;;3.70;1.40;;;-1.10;95.70;;;;;;5056670;28;20196;-81
2023/03/28 01:28:48;;;;;;;0.80;0.80;;;-1.30;95.90;;;;;;5055427;28;20186;-81
2023/03/28 01:31:38;;;;;;;1.00;1.00;;;-1.40;96.50;;;;;;5056411;28;20179;-80
2023/03/28 01:34:23;;;;;;;1.00;1.00;;;-1.50;96.00;;;;;;5055966;28;20190;-81
2023/03/28 01:36:51;;;;;;;1.20;1.20;;;-1.30;96.80;;;;;;5059129;28;20186;-82
2023/03/28 01:39:37;;;;;;;0.90;0.90;;;-1.20;89.20;;;;;;5061847;28;20176;-81
2023/03/28 01:42:28;;;;;;;1.33;1.23;;;-1.30;87.60;;;;;;5063986;28;20183;-82
2023/03/28 01:45:13;;;;;;;1.40;1.30;;;-1.30;97.10;;;;;;5044589;28;20220;-81
2023/03/28 01:48:04;;;;;;;1.30;1.30;;;-1.30;97.10;;;;;;5065775;28;20182;-81
2023/03/28 01:50:41;;;;;;;1.13;1.13;;;-1.30;90.00;;;;;;5040166;28;20247;-80
2023/03/28 01:53:34;;;;;;;0.90;0.90;;;-1.30;97.90;;;;;;5067055;28;20270;-81
2023/03/28 01:56:10;;;;;;;1.20;1.10;;;-0.70;91.20;;;;;;5068471;28;20180;-83
2023/03/28 01:58:47;;;;;;;2.13;1.20;;;-1.10;91.40;;;;;;5068477;28;20613;-80
2023/03/28 02:01:21;;;;;;;1.30;1.20;;;-1.40;90.80;;;;;;5067036;28;20193;-81
2023/03/28 02:03:53;;;;;;;1.10;1.00;;;-1.00;91.50;;;;;;5069145;28;20170;-80
2023/03/28 02:06:21;;;;;;;1.03;1.03;;;-1.60;98.80;;;;;;5062633;28;20725;-81
2023/03/28 02:08:49;;;;;;;0.97;0.97;;;-1.50;99.50;;;;;;5060761;28;20193;-81
2023/03/28 02:11:15;;;;;;;0.97;0.97;;;;;;;;;;5061161;28;20179;-81
2023/03/28 02:13:48;;;;;;;1.00;1.00;;;-1.40;92.80;;;;;;5060212;28;20183;-81
2023/03/28 02:16:15;;;;;;;1.00;1.00;;;-1.40;92.90;;;;;;5061796;28;20170;-81
2023/03/28 02:18:48;;;;;;;0.90;0.90;;;-1.50;93.60;;;;;;5042088;28;20233;-81
2023/03/28 02:21:18;;;;;;;1.27;1.10;;;-1.50;93.80;;;;;;5061623;28;20251;-80
2023/03/28 02:23:52;;;;;;;1.00;1.00;;;-1.30;99.90;;;;;;5060658;28;20257;-81
2023/03/28 02:26:19;;;;;;;2.60;2.03;;;-0.10;95.10;;;;;;5057601;28;20190;-81
2023/03/28 02:28:48;;;;;;;2.60;1.30;;;-0.90;95.00;;;;;;5055874;28;20533;-81
2023/03/28 02:31:14;;;;;;;0.90;0.90;;;-1.50;95.10;;;;;;5056304;28;20185;-80
2023/03/28 02:33:42;;;;;;;1.23;1.20;;;-1.50;95.60;;;;;;5058468;28;20181;-81
2023/03/28 02:36:23;;;;;;;1.07;1.07;;;0.20;96.60;;;;;;5058214;28;20180;-81
2023/03/28 02:39:16;;;;;;;1.63;1.10;;;-1.50;96.30;;;;;;5058821;28;20171;-81
2023/03/28 02:42:13;;;;;;;1.20;1.20;;;-1.50;96.60;;;;;;5056818;28;20193;-81
2023/03/28 02:44:57;;;;;;;1.10;1.10;;;-1.60;97.00;;;;;;5057227;28;20212;-81
2023/03/28 02:47:59;;;;;;;1.43;1.33;;;-1.50;97.70;;;;;;5058879;28;20233;-81
2023/03/28 02:50:38;;;;;;;1.00;1.00;;;-1.50;97.60;;;;;;5060349;28;20177;-81
2023/03/28 02:53:32;;;;;;;1.23;1.23;;;-1.50;99.90;;;;;;5060090;28;20170;-81
2023/03/28 02:56:07;;;;;;;1.07;1.07;;;-1.50;98.10;;;;;;5056630;28;20194;-81
2023/03/28 02:58:54;;;;;;;1.30;1.30;;;-1.50;98.30;;;;;;5063615;28;20205;-81
2023/03/28 03:01:24;;;;;;;0.80;0.80;;;-1.00;99.30;;;;;;5065784;28;20177;-81
2023/03/28 03:03:50;;;;;;;1.27;1.20;;;-0.30;99.50;;;;;;5066558;28;20248;-81
2023/03/28 03:06:16;;;;;;;1.40;1.30;;;-0.30;99.70;;;;;;5068560;28;20663;-81
2023/03/28 03:08:43;;;;;;;1.10;1.10;;;0.60;99.90;;;;;;5074382;28;20187;-81
2023/03/28 03:11:08;;;;;;;1.37;1.27;;;-1.50;99.90;;;;;;5058122;28;20176;-80
2023/03/28 03:13:34;;;;;;;1.13;1.10;;;-1.50;99.90;;;;;;5075532;28;20214;-81
2023/03/28 03:15:59;;;;;;;0.97;0.97;;;-1.50;99.90;;;;;;5057556;28;20172;-81
2023/03/28 03:18:26;;;;;;;1.43;1.40;;;-1.50;99.90;;;;;;5073919;28;20239;-81
2023/03/28 03:20:52;;;;;;;0.90;0.90;;;-1.50;99.90;;;;;;5070515;28;20166;-80
2023/03/28 03:23:18;;;;;;;1.90;1.43;;;-1.20;99.90;;;;;;5073616;28;20201;-82
2023/03/28 03:25:45;;;;;;;2.20;1.67;;;-1.10;99.90;;;;;;5076402;28;20252;-80
2023/03/28 03:28:11;;;;;;;1.00;1.00;;;-1.40;99.90;;;;;;5058404;28;20252;-82
2023/03/28 03:30:37;;;;;;;1.00;1.00;;;-0.90;99.90;;;;;;5074678;28;20195;-81
2023/03/28 03:33:04;;;;;;;5.80;1.33;;;-1.50;99.90;;;;;;5068966;28;20210;-82
2023/03/28 03:35:32;;;;;;;0.87;0.87;;;-0.70;99.90;;;;;;5054109;28;20194;-81
2023/03/28 03:37:59;;;;;;;1.20;1.20;;;-1.60;99.90;;;;;;5052636;28;20545;-82
2023/03/28 03:40:25;;;;;;;1.73;1.63;;;-1.40;99.90;;;;;;5060848;28;20257;-81
2023/03/28 03:42:50;;;;;;;1.37;1.33;;;-1.30;99.90;;;;;;5062460;28;20255;-82
2023/03/28 03:45:16;;;;;;;1.77;1.67;;;-1.30;99.90;;;;;;5059956;28;20243;-79
2023/03/28 03:47:42;;;;;;;2.10;1.90;;;-1.60;99.90;;;;;;5061068;28;20196;-80
2023/03/28 03:50:08;;;;;;;1.63;1.53;;;-1.60;99.90;;;;;;5038520;28;20182;-82
2023/03/28 03:52:34;;;;;;;1.77;1.67;;;-1.60;99.90;;;;;;5059380;28;20190;-83
2023/03/28 03:55:01;;;;;;;2.27;2.17;;;;;;;;;;5042848;28;20193;-82
2023/03/28 03:57:27;;;;;;;1.40;1.30;;;-1.50;99.90;;;;;;5063817;28;20186;-82
2023/03/28 03:59:53;;;;;;;0.90;0.90;;;-1.60;99.90;;;;;;5063938;28;20241;-83
2023/03/28 04:02:19;;;;;;;1.30;1.30;;;-1.30;99.90;;;;;;5061581;28;20183;-81
2023/03/28 04:04:46;;;;;;;1.40;1.30;;;-1.30;99.90;;;;;;5060597;28;20211;-84
2023/03/28 04:07:12;;;;;;;1.80;1.23;;;-1.40;99.90;;;;;;5042685;28;20627;-82
2023/03/28 04:09:38;;;;;;;1.00;1.00;;;-1.60;99.90;;;;;;5060208;28;20176;-82
2023/03/28 04:12:05;;;;;;;1.40;1.40;;;-0.70;99.90;;;;;;5058600;28;20262;-82
2023/03/28 04:14:31;;;;;;;1.13;1.13;;;;;;;;;;5061656;28;20181;-82
2023/03/28 04:16:57;;;;;;;1.60;1.50;;;-1.60;99.90;;;;;;5059792;28;20230;-83
2023/03/28 04:19:24;;;;;;;1.23;1.23;;;-1.70;99.90;;;;;;5060272;28;20193;-82
2023/03/28 04:21:51;;;;;;;1.13;1.13;;;0.10;99.90;;;;;;5060131;28;20206;-82
2023/03/28 04:24:23;;;;;;;1.20;1.20;;;-1.70;99.90;;;;;;5061366;28;20186;-82
2023/03/28 04:26:49;;;;;;;1.87;1.77;;;-1.70;99.90;;;;;;5061427;28;20628;-82
2023/03/28 04:29:15;;;;;;;1.10;1.10;;;-1.50;99.90;;;;;;5059791;28;20180;-83
2023/03/28 04:31:48;;;;;;;1.00;1.00;;;;;;;;;;5060832;28;20218;-82
2023/03/28 04:34:15;;;;;;;1.03;1.03;;;-1.70;99.90;;;;;;5060140;28;20188;-81
2023/03/28 04:36:42;;;;;;;1.37;1.37;;;-1.70;99.90;;;;;;5060153;28;20191;-81
2023/03/28 04:39:08;;;;;;;1.00;1.00;;;-1.70;99.90;;;;;;5057964;28;20275;-82
2023/03/28 04:41:34;;;;;;;0.90;0.90;;;-1.70;99.90;;;;;;5042806;28;20378;-84
2023/03/28 04:44:00;;;;;;;1.47;1.30;;;-0.80;99.90;;;;;;5052573;28;20199;-79
2023/03/28 04:46:28;;;;;;;1.30;1.20;;;-1.60;99.90;;;;;;5031967;28;20295;-84
2023/03/28 04:48:54;;;;;;;2.93;1.73;;;-1.40;99.90;;;;;;5048233;28;20244;-81
2023/03/28 04:51:20;;;;;;;1.40;1.30;;;;;;;;;;5058950;28;20196;-82
2023/03/28 04:53:46;;;;;;;1.47;1.40;;;-1.80;99.90;;;;;;5048519;28;20194;-82
2023/03/28 04:56:14;;;;;;;0.90;0.90;;;-1.80;99.90;;;;;;5039422;28;20554;-83
2023/03/28 04:58:40;;;;;;;1.37;1.30;;;-1.80;99.90;;;;;;5034141;28;20181;-82
2023/03/28 05:01:09;;;;;;;4.57;1.90;;;-1.80;99.90;;;;;;5051911;28;20250;-81
2023/03/28 05:03:35;;;;;;;0.87;0.87;;;-1.70;99.90;;;;;;5038693;28;20207;-80
2023/03/28 05:06:02;;;;;;;1.50;1.40;;;-1.80;99.90;;;;;;5052941;28;20204;-80
2023/03/28 05:08:28;;;;;;;1.03;1.03;;;-1.70;99.90;;;;;;5051248;28;20184;-81
2023/03/28 05:10:56;;;;;;;1.73;1.63;;;-1.70;99.90;;;;;;5047835;28;20194;-81
2023/03/28 05:13:22;;;;;;;1.20;1.20;;;-1.60;99.90;;;;;;5064853;28;20187;-81
2023/03/28 05:15:48;;;;;;;1.90;1.73;;;-1.20;99.90;;;;;;5049275;28;20219;-82
2023/03/28 05:18:14;;;;;;;2.90;1.97;;;;;;;;;;5064873;28;20234;-82
2023/03/28 05:20:40;;;;;;;1.23;1.23;;;-1.50;99.90;;;;;;5055314;28;20199;-82
2023/03/28 05:23:06;;;;;;;1.20;1.20;;;-1.50;99.90;;;;;;5060349;28;20186;-82
2023/03/28 05:25:32;;;;;;;2.00;1.57;;;-1.40;99.90;;;;;;5053022;28;20224;-80
2023/03/28 05:27:59;;;;;;;1.73;1.63;;;-1.40;99.90;;;;;;5060535;28;20217;-82
2023/03/28 05:30:24;;;;;;;1.63;1.57;;;-1.30;99.90;;;;;;5064100;28;20210;-85
2023/03/28 05:32:50;;;;;;;1.30;1.30;;;-1.30;99.90;;;;;;5064687;28;20187;-81
2023/03/28 05:35:16;;;;;;;3.43;2.57;;;-1.20;99.90;;;;;;5057026;28;20872;-82
2023/03/28 05:37:42;;;;;;;2.43;2.17;;;-1.00;99.90;;;;;;5044457;28;20590;-82
2023/03/28 05:40:10;;;;;;;2.73;1.33;;;-1.00;99.90;;;;;;5059880;28;20200;-83
2023/03/28 05:42:37;;;;;;;1.40;1.40;;;-1.00;99.90;;;;;;5047576;28;20253;-81
2023/03/28 05:45:07;;;;;;;1.83;1.73;;;-0.90;99.90;;;;;;5061548;28;20213;-81
2023/03/28 05:47:33;;;;;;;1.37;1.27;;;-0.70;99.90;;;;;;5058619;28;20249;-83
2023/03/28 05:49:59;;;;;;;2.43;1.60;;;-0.70;99.90;;;;;;5064425;28;20190;-81
2023/03/28 05:52:24;;;;;;;3.03;1.83;;;-0.70;99.90;;;;;;5059584;28;20225;-80
2023/03/28 05:54:50;;;;;;;1.13;1.13;;;-0.60;99.90;;;;;;5053437;28;20547;-81
2023/03/28 05:57:16;;;;;;;2.40;1.97;;;-0.40;99.90;;;;;;5035424;28;20184;-80
2023/03/28 05:59:42;;;;;;;1.67;1.57;;;-0.40;99.90;;;;;;5032709;28;20263;-82
2023/03/28 06:02:16;;;;;;;2.63;1.37;;;-0.30;99.90;;;;;;5032709;28;20261;-81
2023/03/28 06:04:42;;;;;;;2.17;1.60;;;-0.40;99.90;;;;;;5052899;28;20215;-82
2023/03/28 06:07:08;;;;;;;1.73;1.63;;;-0.30;99.90;;;;;;5050751;28;20233;-83
2023/03/28 06:09:34;;;;;;;1.10;1.10;;;-0.30;99.90;;;;;;5047419;28;20194;-82
2023/03/28 06:12:01;;;;;;;3.57;1.63;;;-0.20;99.90;;;;;;5027079;28;20275;-82
2023/03/28 06:14:28;;;;;;;3.73;1.80;;;-0.30;99.90;;;;;;5034124;28;20194;-83
2023/03/28 06:16:54;;;;;;;11.17;1.50;;;-0.30;99.90;;;;;;5042067;28;20251;-82
2023/03/28 06:19:20;;;;;;;1.40;1.13;;;-0.30;99.90;;;;;;5026141;28;20222;-82
2023/03/28 06:21:46;;;;;;;1.27;1.27;;;-0.20;99.70;;;;;;5034569;28;20194;-82
2023/03/28 06:24:11;;;;;;;1.67;1.57;;;-0.20;99.90;;;;;;5042190;28;20192;-82
2023/03/28 06:26:37;;;;;;;2.57;1.87;;;-0.10;99.90;;;;;;5034155;28;20259;-82
2023/03/28 06:29:04;;;;;;;2.60;1.50;;;0.10;99.80;;;;;;5037093;28;20194;-82
2023/03/28 06:31:31;;;;;;;1.00;1.00;;;0.10;99.60;;;;;;5034153;28;20250;-83
2023/03/28 06:33:56;;;;;;;2.07;1.77;;;0.10;99.30;;;;;;5050958;28;20262;-82
2023/03/28 06:36:22;;;;;;;3.03;1.80;;;0.20;98.40;;;;;;5043291;28;20286;-82
2023/03/28 06:38:49;;;;;;;1.17;1.17;;;0.40;97.60;;;;;;5040919;28;20189;-83
2023/03/28 06:41:15;;;;;;;1.33;1.23;;;0.20;96.20;;;;;;5045262;28;20195;-83
2023/03/28 06:43:41;;;;;;;3.60;1.33;;;0.50;97.50;;;;;;5047309;28;20548;-82
2023/03/28 06:46:07;;;;;;;3.57;2.03;;;0.10;97.10;;;;;;5045805;28;20218;-82
2023/03/28 06:48:33;;;;;;;1.20;1.20;;;0.20;96.30;;;;;;5043197;28;20195;-86
2023/03/28 06:50:58;;;;;;;2.57;1.87;;;0.20;96.40;;;;;;5050941;28;20192;-81
2023/03/28 06:53:25;;;;;;;2.20;2.00;;;0.30;95.00;;;;;;5052410;28;20184;-81
2023/03/28 06:55:51;;;;;;;2.87;1.93;;;0.30;94.50;;;;;;5053518;28;20214;-82
2023/03/28 06:58:18;;;;;;;1.23;1.23;;;0.40;94.40;;;;;;5047856;28;20183;-83
2023/03/28 07:00:44;;;;;;;1.60;1.50;;;0.40;94.60;;;;;;5041257;28;20211;-84
2023/03/28 07:03:10;;;;;;;1.70;1.47;;;0.30;94.40;;;;;;5052130;28;20216;-82
2023/03/28 07:05:40;;;;;;;2.17;1.97;;;0.90;94.50;;;;;;5028473;28;20207;-85
2023/03/28 07:08:07;;;;;;;0.83;0.83;;;;;;;;;;5046641;28;20192;-82
2023/03/28 07:10:33;;;;;;;4.40;1.27;;;0.70;93.00;;;;;;5032729;28;20218;-84
2023/03/28 07:12:59;;;;;;;2.30;2.10;;;0.80;92.90;;;;;;5043437;28;20190;-83
2023/03/28 07:15:25;;;;;;;1.97;1.77;;;0.90;93.10;;;;;;5023375;28;20192;-86
2023/03/28 07:17:52;;;;;;;4.73;1.83;;;1.00;91.90;;;;;;5039369;28;20235;-84
2023/03/28 07:20:20;;;;;;;1.17;1.17;;;1.00;91.00;;;;;;5035291;28;20175;-84
2023/03/28 07:22:46;;;;;;;1.13;1.13;;;1.00;90.10;;;;;;5052977;28;20188;-84
2023/03/28 07:25:12;;;;;;;1.67;1.37;;;0.90;87.80;;;;;;5032235;28;20215;-84
2023/03/28 07:27:38;;;;;;;1.00;1.00;;;1.00;90.20;;;;;;5043303;28;20206;-85
2023/03/28 07:30:05;;;;;;;2.20;1.97;;;1.10;88.60;;;;;;5043337;28;20272;-82
2023/03/28 07:32:31;;;;;;;1.80;1.67;;;1.20;89.10;;;;;;5048425;28;20186;-83
2023/03/28 07:34:56;;;;;;;3.57;1.30;;;1.20;90.00;;;;;;5038251;28;20763;-86
2023/03/28 07:37:22;;;;;;;2.50;1.80;;;1.30;88.60;;;;;;5055488;28;20211;-84
2023/03/28 07:39:47;;;;;;;2.53;1.57;;;1.30;85.70;;;;;;5029745;28;20222;-84
2023/03/28 07:42:15;;;;;;;5.60;2.40;;;1.20;84.50;;;;;;5049990;28;20279;-84
2023/03/28 07:44:42;;;;;;;3.30;1.43;;;;;;;;;;5043763;28;20191;-84
2023/03/28 07:47:08;;;;;;;1.00;1.00;;;1.50;85.40;;;;;;5056297;28;20194;-84
2023/03/28 07:49:33;;;;;;;0.90;0.90;;;1.60;86.10;;;;;;5039562;28;20263;-83
2023/03/28 07:51:59;;;;;;;4.13;1.20;;;1.50;84.80;;;;;;5057319;28;20807;-83
2023/03/28 07:54:27;;;;;;;1.47;1.37;;;;;;;;;;5055416;28;20268;-84
2023/03/28 07:56:53;;;;;;;1.20;1.20;;;1.70;82.30;;;;;;5056318;28;20168;-84
2023/03/28 07:59:19;;;;;;;0.97;0.97;;;;;;;;;;5038678;28;20191;-84
2023/03/28 08:01:46;;;;;;;1.70;1.60;;;1.80;79.50;;;;;;5054840;28;20182;-84
2023/03/28 08:04:12;;;;;;;0.90;0.90;;;1.80;78.90;;;;;;5055053;28;20175;-83
2023/03/28 08:06:39;;;;;;;2.10;1.40;;;1.90;81.80;;;;;;5054825;28;20204;-84
2023/03/28 08:09:14;;;;;;;0.87;0.87;;;2.00;79.80;;;;;;5054794;28;20175;-85
2023/03/28 08:11:41;;;;;;;1.10;1.10;;;2.00;76.10;;;;;;5056044;28;20195;-83
2023/03/28 08:14:09;;;;;;;1.20;1.10;;;2.00;75.80;;;;;;5055709;28;20175;-83
2023/03/28 08:16:36;;;;;;;1.07;0.93;;;2.10;77.00;;;;;;5056248;28;20174;-83
2023/03/28 08:19:02;;;;;;;1.67;1.57;;;2.10;76.90;;;;;;5056338;28;20176;-83
2023/03/28 08:21:30;;;;;;;8.47;1.80;;;2.30;76.80;;;;;;5056328;28;20183;-84
2023/03/28 08:23:59;;;;;;;0.90;0.90;;;2.50;77.40;;;;;;5055935;28;20187;-83
2023/03/28 08:26:27;;;;;;;1.10;1.07;;;2.70;76.40;;;;;;5055845;28;20670;-84
2023/03/28 08:28:57;;;;;;;1.30;1.30;;;2.70;74.00;;;;;;5056040;28;20632;-84
2023/03/28 08:31:25;;;;;;;5.80;1.60;;;2.60;73.50;;;;;;5056439;28;20221;-84
2023/03/28 08:33:52;;;;;;;1.70;1.17;;;2.70;74.20;;;;;;5056176;28;20198;-83
2023/03/28 08:36:19;;;;;;;2.63;1.17;;;2.80;73.60;;;;;;5055917;28;20707;-83
2023/03/28 08:38:48;;;;;;;2.93;1.03;;;2.80;74.30;;;;;;5056110;28;20181;-84
2023/03/28 08:41:23;;;;;;;1.40;1.27;;;2.70;72.90;;;;;;5053801;28;20181;-84
2023/03/28 08:44:12;;;;;;;1.77;1.67;;;2.80;74.00;;;;;;5054940;28;20636;-83
2023/03/28 08:46:41;;;;;;;1.50;1.40;;;2.80;75.20;;;;;;5054864;28;20218;-84
2023/03/28 08:49:13;;;;;;;0.90;0.90;;;2.70;75.20;;;;;;5055954;28;20179;-83
2023/03/28 08:51:42;;;;;;;1.10;1.10;;;2.60;75.20;;;;;;5055987;28;20164;-83
2023/03/28 08:54:23;;;;;;;3.70;1.10;;;2.70;76.00;;;;;;5055834;28;20183;-83
2023/03/28 08:56:52;;;;;;;1.23;1.00;;;2.90;76.40;;;;;;5055772;28;20216;-86
2023/03/28 08:59:43;;;;;;;6.00;1.00;;;3.10;75.80;;;;;;5055603;28;20268;-84
2023/03/28 09:02:23;;;;;;;1.70;1.60;;;3.30;77.20;;;;;;5018485;28;20215;-83
2023/03/28 09:04:50;;;;;;;0.87;0.87;;;3.30;79.70;;;;;;5065294;28;20203;-82
2023/03/28 09:07:31;;;;;;;2.40;1.83;;;3.10;85.00;;;;;;5071467;28;20240;-84
2023/03/28 09:10:31;;;;;;;3.80;1.20;;;2.80;89.20;;;;;;5074029;28;20194;-84
2023/03/28 09:13:23;;;;;;;4.43;2.13;;;2.30;91.50;;;;;;5075614;28;20163;-84
2023/03/28 09:15:51;;;;;;;3.03;1.47;;;2.10;93.10;;;;;;5079618;28;20188;-83
2023/03/28 09:18:37;;;;;;;1.13;0.90;;;1.90;94.10;;;;;;5079722;28;20223;-83
2023/03/28 09:21:31;;;;;;;2.00;1.60;;;2.30;94.50;;;;;;5079728;28;20170;-85
2023/03/28 09:24:02;;;;;;;3.57;2.30;;;2.40;93.80;;;;;;5078897;28;20184;-86
2023/03/28 09:26:46;;;;;;;1.50;1.40;;;2.60;95.00;;;;;;5077298;28;20195;-82
2023/03/28 09:29:19;;;;;;;1.93;1.77;;;2.50;94.80;;;;;;5079641;28;20172;-83
2023/03/28 09:31:47;;;;;;;1.20;1.20;;;2.40;95.40;;;;;;5079722;28;20154;-83
2023/03/28 09:34:26;;;;;;;2.10;1.90;;;2.30;96.80;;;;;;5077377;28;20160;-83
2023/03/28 09:36:55;;;;;;;6.37;2.40;;;2.50;99.10;;;;;;5056656;28;20240;-84
2023/03/28 09:39:35;;;;;;;5.43;3.33;;;2.40;99.40;;;;;;5055876;28;20229;-83
2023/03/28 09:42:05;;;;;;;3.20;2.00;;;2.30;99.90;;;;;;5054815;28;20164;-83
2023/03/28 09:44:43;;;;;;;1.97;1.83;;;2.40;99.90;;;;;;5054915;28;20195;-82
2023/03/28 09:47:11;;;;;;;3.80;2.77;;;2.40;99.90;;;;;;5054356;28;20199;-84
2023/03/28 09:49:38;;;;;;;4.77;2.50;;;;;;;;;;5053028;28;20187;-83
2023/03/28 09:52:18;;;;;;;9.57;5.40;;;2.30;99.90;;;;;;5052784;28;20630;-83
2023/03/28 09:54:45;;;;;;;12.17;5.87;;;2.20;99.90;;;;;;5054135;28;20183;-82
2023/03/28 09:57:10;;;;;;;9.57;4.33;;;2.10;99.90;;;;;;5036053;28;20182;-83
2023/03/28 09:59:36;;;;;;;10.60;4.97;;;2.20;99.90;;;;;;5053854;28;20545;-82
2023/03/28 10:02:03;;;;;;;8.13;4.00;;;2.00;99.90;;;;;;5052953;28;20184;-83
2023/03/28 10:04:29;;;;;;;5.73;4.80;;;;;;;;;;5036375;28;20172;-84
2023/03/28 10:07:10;;;;;;;9.83;5.53;;;1.80;99.90;;;;;;5052771;28;20261;-84
2023/03/28 10:10:01;;;;;;;11.57;6.87;;;1.60;99.90;;;;;;5052784;28;20184;-83
2023/03/28 10:12:35;;;;;;;10.40;4.67;;;1.60;99.90;;;;;;5053875;28;20222;-84
2023/03/28 10:15:01;;;;;;;16.13;8.57;;;1.50;99.90;;;;;;5053693;28;20265;-84
2023/03/28 10:17:30;;;;;;;10.37;5.67;;;1.50;99.90;;;;;;5053244;28;20322;-83
2023/03/28 10:20:02;;;;;;;14.87;8.77;;;1.60;99.90;;;;;;5053565;28;20178;-85
2023/03/28 10:22:32;;;;;;;4.17;3.43;;;1.60;99.90;;;;;;5036444;28;20654;-84
2023/03/28 10:24:58;;;;;;;11.10;7.33;;;1.50;99.90;;;;;;5053861;28;20637;-84
2023/03/28 10:27:31;;;;;;;14.73;3.87;;;1.50;99.90;;;;;;5052536;28;20191;-84
2023/03/28 10:30:12;;;;;;;9.47;6.57;;;1.50;99.90;;;;;;5052766;28;20171;-85
2023/03/28 10:32:38;;;;;;;5.00;3.43;;;1.50;99.90;;;;;;5053773;28;20199;-84
2023/03/28 10:35:22;;;;;;;7.33;5.17;;;1.70;99.90;;;;;;5051959;28;20176;-84
2023/03/28 10:37:53;;;;;;;4.20;2.60;;;1.90;99.90;;;;;;5053713;28;20157;-83
2023/03/28 10:40:21;;;;;;;13.83;4.47;;;2.00;99.90;;;;;;5052020;28;20229;-84
2023/03/28 10:42:51;;;;;;;7.67;4.03;;;2.10;99.90;;;;;;5052281;28;20191;-83
2023/03/28 10:45:41;;;;;;;5.00;3.83;;;2.30;99.90;;;;;;5052355;28;20204;-85
2023/03/28 10:48:19;;;;;;;11.27;5.53;;;2.40;99.90;;;;;;5055740;28;20165;-85
2023/03/28 10:50:45;;;;;;;6.67;3.93;;;2.40;99.90;;;;;;5057629;28;20250;-84
2023/03/28 10:53:28;;;;;;;10.63;6.60;;;2.80;99.90;;;;;;5053393;28;20223;-85
2023/03/28 10:56:25;;;;;;;12.93;6.83;;;2.90;99.90;;;;;;5052553;28;20186;-85
2023/03/28 10:59:18;;;;;;;10.87;6.40;;;3.00;99.90;;;;;;5052796;28;20269;-85
2023/03/28 11:01:43;;;;;;;3.73;3.30;;;2.70;99.90;;;;;;5053439;28;20173;-84
2023/03/28 11:04:29;;;;;;;7.07;4.03;;;2.70;99.90;;;;;;5051558;28;20179;-86
2023/03/28 11:07:16;;;;;;;3.23;2.10;;;3.00;99.90;;;;;;5056293;28;20197;-85
2023/03/28 11:09:51;;;;;;;6.27;4.27;;;3.30;99.90;;;;;;5055812;28;20213;-84
2023/03/28 11:12:55;;;;;;;6.93;3.77;;;3.20;99.90;;;;;;5057048;28;20158;-84
2023/03/28 11:15:27;;;;;;;6.97;4.80;;;3.20;99.90;;;;;;4978775;28;20193;-84
2023/03/28 11:18:30;;;;;;;6.27;3.60;;;3.40;99.90;;;;;;5046907;28;20234;-84
2023/03/28 11:21:20;;;;;;;3.83;3.00;;;3.60;99.90;;;;;;5055497;28;20183;-84
2023/03/28 11:24:18;;;;;;;2.87;2.40;;;3.60;99.90;;;;;;5056814;28;20162;-84
2023/03/28 11:27:09;;;;;;;11.60;2.40;;;3.60;99.90;;;;;;5050405;28;20294;-84
2023/03/28 11:29:48;;;;;;;2.07;1.80;;;3.70;99.90;;;;;;5057113;28;20214;-83
2023/03/28 11:32:38;;;;;;;2.23;1.90;;;3.80;98.60;;;;;;5055541;28;20176;-84
2023/03/28 11:35:21;;;;;;;1.73;1.60;;;3.30;97.50;;;;;;5055684;28;20283;-85
2023/03/28 11:38:10;;;;;;;1.50;1.40;;;3.30;99.90;;;;;;5055538;28;20239;-84
2023/03/28 11:40:48;;;;;;;3.37;2.43;;;3.20;99.90;;;;;;5056966;28;20167;-83
2023/03/28 11:43:23;;;;;;;11.97;3.30;;;3.00;99.90;;;;;;5063513;28;20187;-84
2023/03/28 11:45:54;;;;;;;2.30;1.80;;;2.80;99.90;;;;;;5058617;28;20270;-84
2023/03/28 11:48:25;;;;;;;3.83;2.57;;;2.80;99.90;;;;;;5057355;28;20212;-84
2023/03/28 11:51:18;;;;;;;2.00;1.90;;;2.80;99.90;;;;;;5060159;28;20187;-84
2023/03/28 11:54:05;;;;;;;4.70;2.80;;;2.90;99.90;;;;;;5059560;28;20241;-84
2023/03/28 11:57:05;;;;;;;6.87;2.57;;;2.90;99.90;;;;;;5057619;28;20624;-83
2023/03/28 11:59:46;;;;;;;4.13;2.70;;;2.90;99.90;;;;;;5057226;28;20267;-84
2023/03/28 12:02:26;;;;;;;5.67;4.00;;;3.00;99.90;;;;;;5057653;28;20186;-82
2023/03/28 12:05:09;;;;;;;5.27;3.57;;;3.10;99.90;;;;;;5061344;28;20167;-82
2023/03/28 12:07:47;;;;;;;2.00;1.77;;;3.30;99.90;;;;;;5060975;28;20191;-83
2023/03/28 12:10:37;;;;;;;5.30;2.17;;;3.30;99.60;;;;;;5064061;28;20172;-82
2023/03/28 12:13:14;;;;;;;1.83;1.73;;;3.30;99.80;;;;;;5073756;28;20194;-82
2023/03/28 12:15:50;;;;;;;2.53;2.13;;;3.30;99.90;;;;;;5068420;28;20230;-83
2023/03/28 12:18:27;;;;;;;3.33;2.70;;;3.30;99.90;;;;;;5058793;28;20314;-88
2023/03/28 12:21:09;;;;;;;3.63;2.07;;;3.30;99.90;;;;;;5059588;28;20180;-83
2023/03/28 12:23:52;;;;;;;4.70;2.47;;;3.20;99.90;;;;;;5058208;28;20633;-84
2023/03/28 12:26:35;;;;;;;3.13;2.63;;;3.20;99.90;;;;;;5058002;28;20198;-84
2023/03/28 12:29:19;;;;;;;3.47;2.43;;;3.00;99.90;;;;;;5055706;28;20640;-82
2023/03/28 12:31:49;;;;;;;4.07;2.57;;;3.60;99.90;;;;;;5056635;28;20215;-83
2023/03/28 12:34:30;;;;;;;4.73;3.00;;;3.50;99.90;;;;;;5058299;28;20167;-84
2023/03/28 12:37:16;;;;;;;4.73;2.37;;;3.90;99.90;;;;;;5055790;28;20211;-84
2023/03/28 12:40:19;;;;;;;4.20;2.73;;;4.30;98.40;;;;;;5054908;28;20190;-84
2023/03/28 12:42:47;;;;;;;3.67;3.07;;;4.10;99.30;;;;;;5051509;28;20194;-84
2023/03/28 12:45:26;;;;;;;3.67;2.23;;;4.10;98.40;;;;;;5030732;28;20665;-84
2023/03/28 12:47:54;;;;;;;10.10;3.17;;;4.30;97.90;;;;;;5052223;28;20179;-84
2023/03/28 12:50:29;;;;;;;1.53;1.37;;;4.20;95.50;;;;;;5054730;28;20187;-86
2023/03/28 12:52:56;;;;;;;2.27;2.10;;;4.20;96.10;;;;;;5053660;28;20258;-84
2023/03/28 12:55:25;;;;;;;5.40;2.30;;;4.00;94.70;;;;;;5053628;28;20239;-86
2023/03/28 12:58:12;;;;;;;2.60;2.40;;;3.70;95.20;;;;;;5053840;28;20233;-85
2023/03/28 13:01:08;;;;;;;1.67;1.57;;;3.50;95.70;;;;;;5051962;28;20176;-83
2023/03/28 13:03:40;;;;;;;3.20;2.27;;;3.40;95.80;;;;;;5013544;28;20216;-82
2023/03/28 13:06:31;;;;;;;6.10;3.43;;;3.10;96.80;;;;;;5056853;28;20199;-82
2023/03/28 13:09:16;;;;;;;1.97;1.87;;;2.90;99.90;;;;;;5055484;28;20182;-84
2023/03/28 13:12:18;;;;;;;5.17;3.00;;;2.50;99.90;;;;;;5052679;28;20629;-84
2023/03/28 13:15:22;;;;;;;6.37;3.47;;;2.30;99.90;;;;;;5055435;28;20176;-82
2023/03/28 13:18:16;;;;;;;3.53;3.20;;;2.00;99.90;;;;;;5053484;28;20218;-84
2023/03/28 13:20:50;;;;;;;5.47;4.03;;;1.90;99.90;;;;;;5032600;28;20184;-84
2023/03/28 13:23:21;;;;;;;4.03;3.33;;;2.00;99.90;;;;;;5048502;28;20233;-83
2023/03/28 13:25:56;;;;;;;3.13;2.83;;;2.20;99.90;;;;;;5051753;28;20283;-85